Terminal Aerodrome Forecast
Issued by NWS Wilmington, OH

Current Version | Previous Version | Graphics & Text | Print | Product List | Glossary On
Versions: 1 2 3 4 5 6 7 8 9 10 11 12 13 14 15
175
FTUS41 KILN 272105 AAA
TAFCMH
TAF AMD
KCMH 272105Z 2721/2818 15006KT P6SM SCT015 OVC060
      TEMPO 2721/2723 BKN015
     FM280400 14004KT P6SM SCT040 BKN150
     FM281300 15008KT P6SM VCSH OVC025
     FM281500 17010KT P6SM -SHRA OVC015=

USA.gov is the U.S. government's official web portal to all federal, state and local government web resources and services.